TWISTER KBHM-KAUS
Flight info
| Callsign | TWISTER |
|---|---|
| Flight time | N/A |
| Altitude | 43000 |
| Route | DAYVS KWANE AEX WEEED WLEEE7 |
| Aircraft | GLF6/M-SBDE2E3FGHIJ4J5M1RWXY/LB1D1 |
Departure
| Time | 2026-04-26 17:46 |
|---|---|
| Airport | Birmingham-Shuttlesworth International Airport (KBHM) |
Arrival
| Time | N/A |
|---|---|
| Airport | Austin Bergstrom International Airport (KAUS) |
| Time | Latitude | Longitude | Altitude | Speed | Heading |
|---|---|---|---|---|---|
| 2026-04-26 16:58 | 33.56137 | -86.75499 | 612 ft | 0 kts | 162° |
| 2026-04-26 17:18 | 33.56137 | -86.75498 | 612 ft | 0 kts | 162° |
| 2026-04-26 17:32 | 33.56137 | -86.75499 | 612 ft | 0 kts | 162° |
| 2026-04-26 17:32 | 33.56139 | -86.75499 | 612 ft | 0 kts | 162° |
| 2026-04-26 17:32 | 33.56141 | -86.75500 | 612 ft | 0 kts | 162° |
| 2026-04-26 17:33 | 33.56143 | -86.75501 | 612 ft | 0 kts | 183° |
| 2026-04-26 17:33 | 33.56146 | -86.75501 | 612 ft | 0 kts | 206° |
| 2026-04-26 17:34 | 33.56142 | -86.75507 | 612 ft | 1 kts | 236° |
| 2026-04-26 17:34 | 33.56142 | -86.75513 | 613 ft | 1 kts | 284° |
| 2026-04-26 17:34 | 33.56154 | -86.75532 | 613 ft | 5 kts | 306° |
| 2026-04-26 17:35 | 33.56182 | -86.75552 | 614 ft | 4 kts | 358° |
| 2026-04-26 17:35 | 33.56212 | -86.75548 | 614 ft | 4 kts | 9° |
| 2026-04-26 17:35 | 33.56234 | -86.75543 | 615 ft | 2 kts | 10° |
| 2026-04-26 17:35 | 33.56247 | -86.75540 | 615 ft | 2 kts | 12° |
| 2026-04-26 17:36 | 33.56269 | -86.75530 | 616 ft | 3 kts | 27° |
| 2026-04-26 17:36 | 33.56290 | -86.75516 | 617 ft | 2 kts | 31° |
| 2026-04-26 17:36 | 33.56303 | -86.75505 | 618 ft | 3 kts | 34° |
| 2026-04-26 17:36 | 33.56328 | -86.75481 | 619 ft | 6 kts | 41° |
| 2026-04-26 17:37 | 33.56363 | -86.75424 | 619 ft | 9 kts | 56° |
| 2026-04-26 17:37 | 33.56400 | -86.75356 | 620 ft | 9 kts | 56° |
| 2026-04-26 17:37 | 33.56438 | -86.75291 | 621 ft | 9 kts | 54° |
| 2026-04-26 17:38 | 33.56509 | -86.75166 | 623 ft | 8 kts | 56° |
| 2026-04-26 17:38 | 33.56537 | -86.75116 | 625 ft | 5 kts | 56° |
| 2026-04-26 17:38 | 33.56556 | -86.75081 | 626 ft | 5 kts | 57° |
| 2026-04-26 17:38 | 33.56575 | -86.75044 | 627 ft | 5 kts | 58° |
| 2026-04-26 17:39 | 33.56589 | -86.74997 | 627 ft | 6 kts | 86° |
| 2026-04-26 17:39 | 33.56582 | -86.74937 | 627 ft | 7 kts | 99° |
| 2026-04-26 17:39 | 33.56592 | -86.74876 | 628 ft | 6 kts | 64° |
| 2026-04-26 17:39 | 33.56612 | -86.74838 | 630 ft | 4 kts | 55° |
| 2026-04-26 17:40 | 33.56622 | -86.74822 | 630 ft | 0 kts | 55° |
| 2026-04-26 17:40 | 33.56665 | -86.74747 | 632 ft | 23 kts | 55° |
| 2026-04-26 17:41 | 33.56769 | -86.74567 | 634 ft | 26 kts | 55° |
| 2026-04-26 17:41 | 33.56868 | -86.74397 | 639 ft | 23 kts | 56° |
| 2026-04-26 17:41 | 33.56956 | -86.74246 | 642 ft | 21 kts | 54° |
| 2026-04-26 17:41 | 33.57038 | -86.74102 | 644 ft | 19 kts | 53° |
| 2026-04-26 17:42 | 33.57115 | -86.73973 | 646 ft | 18 kts | 55° |
| 2026-04-26 17:42 | 33.57170 | -86.73878 | 650 ft | 7 kts | 54° |
| 2026-04-26 17:42 | 33.57201 | -86.73842 | 651 ft | 5 kts | 29° |
| 2026-04-26 17:42 | 33.57239 | -86.73844 | 651 ft | 6 kts | 331° |
| 2026-04-26 17:43 | 33.57268 | -86.73866 | 651 ft | 2 kts | 327° |
| 2026-04-26 17:44 | 33.57296 | -86.73889 | 651 ft | 10 kts | 324° |
| 2026-04-26 17:44 | 33.57314 | -86.73965 | 649 ft | 11 kts | 243° |
| 2026-04-26 17:44 | 33.57284 | -86.74016 | 647 ft | 0 kts | 233° |
| 2026-04-26 17:45 | 33.57283 | -86.74017 | 647 ft | 1 kts | 233° |
| 2026-04-26 17:46 | 33.57173 | -86.74210 | 644 ft | 79 kts | 234° |
| 2026-04-26 17:46 | 33.56652 | -86.75105 | 671 ft | 174 kts | 235° |
| 2026-04-26 17:46 | 33.55857 | -86.76457 | 1127 ft | 229 kts | 235° |
| 2026-04-26 17:46 | 33.54847 | -86.78206 | 1807 ft | 276 kts | 236° |
| 2026-04-26 17:47 | 33.53870 | -86.79905 | 2552 ft | 221 kts | 236° |
| 2026-04-26 17:47 | 33.53594 | -86.80379 | 2746 ft | 207 kts | 236° |
| 2026-04-26 17:47 | 33.52176 | -86.82822 | 4094 ft | 244 kts | 237° |
| 2026-04-26 17:47 | 33.51163 | -86.84586 | 4948 ft | 266 kts | 237° |
| 2026-04-26 17:48 | 33.50126 | -86.86398 | 5674 ft | 270 kts | 238° |
| 2026-04-26 17:48 | 33.49054 | -86.88271 | 6260 ft | 272 kts | 238° |
| 2026-04-26 17:48 | 33.47995 | -86.90121 | 6896 ft | 273 kts | 239° |
| 2026-04-26 17:48 | 33.46919 | -86.92001 | 7663 ft | 276 kts | 239° |
| 2026-04-26 17:49 | 33.45832 | -86.93902 | 8418 ft | 279 kts | 239° |
| 2026-04-26 17:49 | 33.44748 | -86.95798 | 9166 ft | 280 kts | 239° |
| 2026-04-26 17:49 | 33.43645 | -86.97729 | 9924 ft | 282 kts | 240° |
| 2026-04-26 17:49 | 33.42515 | -86.99718 | 10712 ft | 306 kts | 240° |
| 2026-04-26 17:50 | 33.41290 | -87.01904 | 11536 ft | 335 kts | 240° |
| 2026-04-26 17:50 | 33.39984 | -87.04254 | 12532 ft | 345 kts | 240° |
| 2026-04-26 17:50 | 33.38663 | -87.06638 | 13456 ft | 349 kts | 240° |
| 2026-04-26 17:50 | 33.37604 | -87.09222 | 14301 ft | 345 kts | 259° |
| 2026-04-26 17:51 | 33.37359 | -87.11993 | 15215 ft | 345 kts | 272° |
| 2026-04-26 17:51 | 33.36875 | -87.14856 | 16095 ft | 357 kts | 249° |
| 2026-04-26 17:51 | 33.35326 | -87.17212 | 17083 ft | 375 kts | 224° |
| 2026-04-26 17:51 | 33.32972 | -87.18623 | 18155 ft | 394 kts | 201° |
| 2026-04-26 17:52 | 33.30205 | -87.18837 | 19086 ft | 414 kts | 179° |
| 2026-04-26 17:52 | 33.27352 | -87.18745 | 19983 ft | 412 kts | 194° |
| 2026-04-26 17:52 | 33.24716 | -87.19855 | 20920 ft | 401 kts | 216° |
| 2026-04-26 17:52 | 33.22564 | -87.21851 | 22058 ft | 392 kts | 230° |
| 2026-04-26 17:53 | 33.20767 | -87.24225 | 22987 ft | 391 kts | 235° |
| 2026-04-26 17:53 | 33.19070 | -87.26662 | 23312 ft | 391 kts | 237° |
| 2026-04-26 17:53 | 33.17309 | -87.29247 | 23803 ft | 407 kts | 236° |
| 2026-04-26 17:54 | 33.13787 | -87.34412 | 25915 ft | 410 kts | 237° |
| 2026-04-26 17:54 | 33.11983 | -87.37057 | 26663 ft | 417 kts | 237° |
| 2026-04-26 17:54 | 33.10159 | -87.39727 | 27714 ft | 416 kts | 237° |
| 2026-04-26 17:54 | 33.08336 | -87.42400 | 28368 ft | 424 kts | 237° |
| 2026-04-26 17:55 | 33.06485 | -87.45109 | 29160 ft | 427 kts | 237° |
| 2026-04-26 17:55 | 33.04620 | -87.47832 | 30044 ft | 428 kts | 236° |
| 2026-04-26 17:55 | 33.03353 | -87.49686 | 30437 ft | 433 kts | 236° |
| 2026-04-26 17:55 | 33.00795 | -87.53421 | 31294 ft | 439 kts | 236° |
| 2026-04-26 17:56 | 32.98900 | -87.56181 | 32379 ft | 432 kts | 236° |
| 2026-04-26 17:56 | 32.95136 | -87.61668 | 33984 ft | 428 kts | 236° |
| 2026-04-26 17:57 | 32.91394 | -87.67110 | 35436 ft | 425 kts | 236° |
| 2026-04-26 17:57 | 32.89516 | -87.69840 | 36180 ft | 423 kts | 236° |
| 2026-04-26 17:57 | 32.87687 | -87.72496 | 36864 ft | 421 kts | 236° |
| 2026-04-26 17:57 | 32.85835 | -87.75185 | 37392 ft | 423 kts | 236° |
| 2026-04-26 17:58 | 32.80254 | -87.83272 | 39018 ft | 423 kts | 236° |
| 2026-04-26 17:59 | 32.76518 | -87.88676 | 40036 ft | 423 kts | 236° |
| 2026-04-26 17:59 | 32.74650 | -87.91375 | 40518 ft | 423 kts | 236° |
| 2026-04-26 17:59 | 32.72793 | -87.94057 | 40952 ft | 424 kts | 236° |
| 2026-04-26 17:59 | 32.70937 | -87.96736 | 41394 ft | 423 kts | 236° |
| 2026-04-26 18:00 | 32.69064 | -87.99432 | 41868 ft | 422 kts | 236° |
| 2026-04-26 18:00 | 32.67210 | -88.02106 | 42276 ft | 422 kts | 236° |
| 2026-04-26 18:00 | 32.65348 | -88.04787 | 42674 ft | 422 kts | 236° |
| 2026-04-26 18:00 | 32.63482 | -88.07472 | 42970 ft | 421 kts | 236° |
| 2026-04-26 18:01 | 32.59777 | -88.12796 | 42991 ft | 421 kts | 236° |
| 2026-04-26 18:01 | 32.56052 | -88.18141 | 42990 ft | 421 kts | 236° |
| 2026-04-26 18:02 | 32.53572 | -88.21697 | 42981 ft | 422 kts | 236° |
| 2026-04-26 18:02 | 32.48592 | -88.28823 | 42982 ft | 421 kts | 236° |
| 2026-04-26 18:03 | 32.44876 | -88.34133 | 42984 ft | 421 kts | 236° |
| 2026-04-26 18:03 | 32.41149 | -88.39451 | 42992 ft | 422 kts | 236° |
| 2026-04-26 18:04 | 32.37508 | -88.44855 | 42946 ft | 415 kts | 244° |
| 2026-04-26 18:05 | 32.34526 | -88.54261 | 42985 ft | 409 kts | 256° |
| 2026-04-26 18:05 | 32.32866 | -88.60702 | 42990 ft | 409 kts | 257° |
| 2026-04-26 18:06 | 32.31212 | -88.67129 | 43004 ft | 409 kts | 256° |
| 2026-04-26 18:06 | 32.29556 | -88.73556 | 43007 ft | 410 kts | 256° |
| 2026-04-26 18:07 | 32.27907 | -88.79934 | 43002 ft | 409 kts | 256° |
| 2026-04-26 18:07 | 32.26242 | -88.86361 | 43006 ft | 409 kts | 256° |
| 2026-04-26 18:08 | 32.24576 | -88.92777 | 43001 ft | 412 kts | 257° |
| 2026-04-26 18:08 | 32.22901 | -88.99216 | 43006 ft | 412 kts | 256° |
| 2026-04-26 18:09 | 32.21216 | -89.05675 | 42996 ft | 414 kts | 256° |
| 2026-04-26 18:09 | 32.19524 | -89.12146 | 42978 ft | 413 kts | 256° |
| 2026-04-26 18:10 | 32.17834 | -89.18597 | 42994 ft | 412 kts | 256° |
| 2026-04-26 18:10 | 32.16145 | -89.25027 | 42995 ft | 412 kts | 256° |
| 2026-04-26 18:11 | 32.14446 | -89.31476 | 42984 ft | 412 kts | 257° |
| 2026-04-26 18:11 | 32.12748 | -89.37911 | 42978 ft | 411 kts | 256° |
| 2026-04-26 18:12 | 32.11041 | -89.44369 | 42984 ft | 412 kts | 256° |